Latest Weather Observations for Jandakot

IDW60901

Issued at 11:51 am WST Wednesday 22 February 2017 (issued every 10 minutes, with the page automatically refreshed every 10 minutes)

About weather observations | Map of Perth area stations | Latest observations for Perth area | Other Formats
Station Details ID: 009172 Name: JANDAKOT AERO Lat: -32.10 Lon: 115.88 Height: 30.0 m
Data from the previous 72 hours. | See also: Recent months at Jandakot
Date/Time
WST
Temp
°C
App
Temp
°C
Dew
Point
°C
Rel
Hum
%
Delta-T
°C
Wind Press
QNH
hPa
Press
MSL
hPa
Rain since
9am
mm
Dir  Spd
km/h
Gust
km/h
Spd
kts
Gust
kts
22/11:30am 20.2 17.3 9.7 51 5.6 SSW 15 22 8 12 1021.9 1021.8 0.0
22/11:00am 20.2 17.6 9.5 50 5.7 SSE 13 22 7 12 1022.2 1022.1 0.0
22/10:30am 20.1 17.5 9.3 49 5.7 SSE 13 20 7 11 1022.4 1022.3 0.0
22/10:00am 19.4 16.0 9.1 51 5.4 S 17 24 9 13 1022.5 1022.4 0.0
22/09:30am 19.4 16.4 9.1 51 5.4 ESE 15 20 8 11 1022.4 1022.3 0.0
22/09:00am 18.4 14.9 8.7 53 5.0 ESE 17 22 9 12 1022.2 1022.1 0.0
22/08:30am 17.3 14.2 9.0 58 4.3 E 15 17 8 9 1022.1 1022.0 0.0
22/08:00am 15.9 13.5 8.8 62 3.6 ESE 11 17 6 9 1022.1 1022.0 0.0
22/07:30am 14.4 12.5 8.9 69 2.8 E 9 13 5 7 1021.7 1021.6 0.0
22/07:00am 12.7 11.3 8.9 78 1.9 NE 6 7 3 4 1021.5 1021.4 0.0
22/06:30am 11.3 9.8 8.4 82 1.4 ENE 6 7 3 4 1021.2 1021.1 0.0
22/06:00am 9.7 7.5 7.8 88 0.9 E 9 11 5 6 1020.8 1020.7 0.0
22/05:30am 9.0 8.3 7.1 88 0.9 CALM 0 0 0 0 1020.5 1020.4 0.0
22/05:00am 8.1 7.2 6.1 87 0.9 CALM 0 0 0 0 1020.1 1020.0 0.0
22/04:30am 8.7 8.0 6.8 88 0.9 CALM 0 0 0 0 1019.8 1019.7 0.0
22/04:00am 9.0 8.4 7.3 89 0.8 CALM 0 0 0 0 1019.7 1019.6 0.0
22/03:30am 9.3 7.4 6.9 85 1.1 SSE 6 6 3 3 1019.7 1019.6 0.0
22/03:00am 9.7 7.9 7.2 84 1.2 SSE 6 7 3 4 1019.8 1019.7 0.0
22/02:30am 9.1 6.6 6.5 84 1.2 SE 9 11 5 6 1019.5 1019.4 0.0
22/02:00am 10.2 8.0 6.3 77 1.8 SSE 7 9 4 5 1019.4 1019.3 0.0
22/01:30am 10.2 7.6 6.1 76 1.9 S 9 9 5 5 1019.5 1019.4 0.0
22/01:00am 11.6 8.8 6.8 72 2.3 S 11 13 6 7 1019.5 1019.4 0.0
22/12:30am 13.0 10.7 7.5 69 2.7 SSW 9 13 5 7 1019.5 1019.4 0.0
22/12:00am 13.4 11.1 7.5 67 2.9 S 9 11 5 6 1019.4 1019.3 0.0
 
Date/Time
WST
Temp
°C
App
Temp
°C
Dew
Point
°C
Rel
Hum
%
Delta-T
°C
Wind Press
QNH
hPa
Press
MSL
hPa
Rain since
9am
mm
Dir  Spd
km/h
Gust
km/h
Spd
kts
Gust
kts
21/11:30pm 13.9 11.3 7.6 66 3.1 S 11 13 6 7 1019.4 1019.3 0.0
21/11:00pm 14.9 11.8 7.4 61 3.7 S 13 17 7 9 1019.4 1019.3 0.0
21/10:30pm 15.8 12.4 7.6 58 4.1 S 15 20 8 11 1019.3 1019.2 0.0
21/10:00pm 15.7 13.3 8.6 62 3.6 SSW 11 15 6 8 1019.2 1019.1 0.0
21/09:30pm 16.0 13.2 8.5 61 3.8 SSW 13 15 7 8 1019.0 1018.9 0.0
21/09:00pm 16.1 13.6 8.2 59 4.0 SSW 11 15 6 8 1018.9 1018.8 0.0
21/08:30pm 16.5 13.5 7.7 56 4.4 SSW 13 17 7 9 1018.5 1018.4 0.0
21/08:00pm 17.1 13.3 7.5 53 4.8 SSW 17 24 9 13 1018.2 1018.1 0.0
21/07:30pm 17.3 13.0 7.8 53 4.8 SSW 20 26 11 14 1017.8 1017.7 0.0
21/07:00pm 17.7 12.6 7.8 52 5.0 SSW 24 32 13 17 1017.5 1017.4 0.0
21/06:30pm 18.3 12.9 8.2 51 5.2 SSW 26 35 14 19 1017.0 1016.9 0.0
21/06:00pm 18.9 12.2 8.0 49 5.6 SSW 33 50 18 27 1016.6 1016.5 0.0
21/05:55pm 19.2 13.1 8.1 48 5.7 SSW 30 50 16 27 1016.6 1016.5 0.0
21/05:30pm 19.2 12.6 8.4 49 5.6 SSW 33 44 18 24 1016.2 1016.1 0.0
21/05:17pm 19.5 12.9 7.6 46 6.1 SSW 32 50 17 27 1016.1 1016.0 0.0
21/05:00pm 19.2 12.7 9.1 52 5.3 SSW 33 43 18 23 1016.0 1015.9 0.0
21/04:30pm 19.9 12.0 6.3 41 6.8 SW 37 48 20 26 1015.9 1015.8 0.0
21/04:00pm 20.1 13.3 7.6 44 6.4 SSW 33 44 18 24 1015.8 1015.7 0.0
21/03:30pm 20.9 13.6 5.6 36 7.6 SW 33 50 18 27 1015.8 1015.7 0.0
21/03:00pm 20.7 13.1 5.6 37 7.5 SW 35 50 19 27 1015.8 1015.7 0.0
21/02:30pm 21.4 13.7 6.9 39 7.4 SW 37 56 20 30 1015.9 1015.8 0.0
21/02:21pm 21.2 13.6 7.4 41 7.1 SW 37 56 20 30 1015.7 1015.6 0.0
21/02:00pm 20.7 12.6 6.9 40 7.0 SW 39 52 21 28 1015.8 1015.7 0.0
21/01:30pm 21.8 14.1 7.2 39 7.5 WSW 37 48 20 26 1015.6 1015.5 0.0
21/01:00pm 22.4 15.2 5.7 33 8.4 SW 33 54 18 29 1015.5 1015.4 0.0
21/12:30pm 22.0 13.8 5.0 33 8.4 SW 37 56 20 30 1015.6 1015.5 0.0
21/12:00pm 21.4 14.5 7.4 40 7.2 SW 33 48 18 26 1015.7 1015.6 0.0
21/11:30am 20.9 13.7 7.5 42 6.9 SW 35 46 19 25 1015.5 1015.4 0.0
21/11:00am 21.2 13.4 4.9 34 8.0 SW 35 46 19 25 1015.5 1015.4 0.0
21/10:30am 20.8 12.6 6.6 39 7.2 SW 39 50 21 27 1015.4 1015.3 0.0
21/10:00am 20.9 12.9 7.5 42 6.9 WSW 39 50 21 27 1015.3 1015.1 0.0
21/09:30am 19.6 12.1 8.0 47 6.0 SW 37 52 20 28 1014.9 1014.7 0.0
21/09:00am 19.9 11.9 9.1 49 5.7 SW 41 56 22 30 1014.6 1014.4 0.0
21/08:30am 19.6 13.6 10.8 56 4.8 SW 33 43 18 23 1014.0 1013.8 0.0
21/08:00am 18.8 13.7 11.9 64 3.8 SSW 30 44 16 24 1013.6 1013.4 0.0
21/07:47am 19.2 14.6 12.2 64 3.9 SW 28 48 15 26 1013.4 1013.2 0.0
21/07:30am 17.9 14.6 14.1 78 2.2 SW 24 35 13 19 1013.1 1012.9 0.0
21/07:00am 17.0 12.9 13.8 81 1.8 WSW 28 41 15 22 1012.8 1012.6 0.0
21/06:36am 17.9 13.2 13.3 74 2.6 SW 30 48 16 26 1012.6 1012.4 0.0
21/06:30am 17.9 13.2 13.1 73 2.7 SW 30 41 16 22 1012.5 1012.3 0.0
21/06:00am 18.3 13.4 13.7 74 2.6 W 32 52 17 28 1012.1 1011.9 0.0
21/05:30am 18.4 14.2 12.3 67 3.4 W 26 39 14 21 1011.6 1011.4 0.0
21/05:00am 18.8 14.9 10.9 60 4.3 W 22 32 12 17 1011.6 1011.4 0.0
21/04:30am 18.5 13.8 10.7 60 4.2 W 26 33 14 18 1011.5 1011.3 0.0
21/04:00am 17.8 14.9 11.0 64 3.7 W 17 26 9 14 1011.5 1011.3 0.0
21/03:30am 17.8 15.8 11.6 67 3.4 W 13 17 7 9 1011.6 1011.4 0.0
21/03:00am 18.7 15.7 10.5 59 4.4 W 17 26 9 14 1011.7 1011.5 0.0
21/02:30am 19.0 15.1 9.6 54 5.0 WSW 20 28 11 15 1012.0 1011.8 0.0
21/02:00am 18.3 16.1 10.7 61 4.1 WSW 13 20 7 11 1012.2 1012.0 0.0
21/01:30am 18.8 14.2 10.9 60 4.3 WSW 26 35 14 19 1012.6 1012.4 0.0
21/01:00am 18.8 15.3 10.2 57 4.6 SW 19 26 10 14 1012.6 1012.4 0.0
21/12:30am 18.9 15.2 11.6 62 4.0 SW 22 32 12 17 1012.8 1012.6 0.0
21/12:00am 18.9 15.3 10.6 58 4.5 SW 20 28 11 15 1013.1 1012.9 0.0
 
Date/Time
WST
Temp
°C
App
Temp
°C
Dew
Point
°C
Rel
Hum
%
Delta-T
°C
Wind Press
QNH
hPa
Press
MSL
hPa
Rain since
9am
mm
Dir  Spd
km/h
Gust
km/h
Spd
kts
Gust
kts
20/11:30pm 18.6 15.2 10.4 59 4.4 SW 19 26 10 14 1013.3 1013.1 0.0
20/11:00pm 18.3 15.4 11.1 63 3.9 SW 17 20 9 11 1013.2 1013.0 0.0
20/10:30pm 19.0 15.9 11.5 61 4.1 SW 19 22 10 12 1013.4 1013.2 0.0
20/10:00pm 19.2 16.4 11.4 60 4.3 SW 17 24 9 13 1013.4 1013.2 0.0
20/09:30pm 19.4 15.4 11.8 61 4.2 SW 24 33 13 18 1013.7 1013.5 0.0
20/09:00pm 19.6 16.3 12.9 65 3.8 SW 22 35 12 19 1013.8 1013.6 0.0
20/08:30pm 19.8 15.6 13.5 67 3.6 SW 28 35 15 19 1013.6 1013.4 0.0
20/08:00pm 19.9 17.0 14.0 69 3.4 SW 22 32 12 17 1012.9 1012.7 0.0
20/07:30pm 19.6 17.4 14.8 74 2.8 SSW 20 28 11 15 1012.3 1012.1 0.0
20/07:00pm 20.0 18.1 15.1 73 2.9 SSW 19 26 10 14 1012.0 1011.8 0.0
20/06:30pm 20.5 16.7 14.7 69 3.4 SW 28 35 15 19 1011.7 1011.5 0.0
20/06:00pm 21.6 16.8 14.1 62 4.4 SW 32 39 17 21 1011.3 1011.1 0.0
20/05:30pm 22.0 17.2 13.9 60 4.7 SW 32 43 17 23 1011.3 1011.1 0.0
20/05:00pm 23.0 18.2 14.1 57 5.2 WSW 32 44 17 24 1011.0 1010.8 0.0
20/04:30pm 22.9 18.7 13.6 55 5.4 SW 28 37 15 20 1011.0 1010.8 0.0
20/04:00pm 23.7 19.3 14.0 54 5.7 WSW 30 37 16 20 1010.8 1010.6 0.0
20/03:30pm 23.7 19.3 14.2 55 5.6 WSW 30 39 16 21 1011.0 1010.8 0.0
20/03:00pm 24.2 20.4 13.6 51 6.2 SW 26 37 14 20 1011.1 1010.9 0.0
20/02:30pm 24.1 19.5 13.5 51 6.2 SW 30 37 16 20 1011.5 1011.3 0.0
20/02:00pm 23.9 19.5 12.8 49 6.4 WSW 28 39 15 21 1012.0 1011.8 0.0
20/01:30pm 24.0 19.0 13.3 51 6.2 WSW 32 39 17 21 1012.3 1012.1 0.0
20/01:00pm 24.8 20.3 13.7 50 6.5 WSW 30 37 16 20 1012.6 1012.4 0.0
20/12:30pm 24.3 20.5 14.7 55 5.7 WSW 28 37 15 20 1012.5 1012.3 0.0
20/12:00pm 23.7 19.9 14.6 56 5.4 WSW 28 37 15 20 1012.6 1012.4 0.0
20/11:30am 25.1 22.1 14.9 53 6.1 WSW 24 30 13 16 1013.0 1012.8 0.0
20/11:00am 25.4 24.1 13.7 48 6.9 WSW 13 20 7 11 1013.4 1013.2 0.0
20/10:30am 24.6 21.8 12.6 47 6.9 SW 19 24 10 13 1013.7 1013.5 0.0
20/10:00am 24.2 21.8 12.5 48 6.7 S 17 22 9 12 1013.6 1013.4 0.0
20/09:30am 22.5 20.1 12.7 54 5.6 SSW 17 20 9 11 1013.7 1013.5 0.0
20/09:00am 22.5 20.5 14.9 62 4.5 SSW 19 24 10 13 1013.7 1013.5 0.0
20/08:30am 20.9 18.6 14.6 67 3.7 SSW 20 24 11 13 1013.6 1013.4 0.0
20/08:00am 20.0 17.0 14.7 71 3.1 SSW 24 28 13 15 1013.5 1013.3 0.0
20/07:30am 19.8 17.2 15.0 74 2.8 SSW 22 30 12 16 1013.5 1013.3 0.0
20/07:00am 19.4 17.0 15.3 77 2.4 SSW 22 33 12 18 1013.4 1013.2 0.0
20/06:30am 19.3 17.1 15.9 81 2.0 S 22 30 12 16 1013.3 1013.1 0.0
20/06:00am 19.9 19.3 17.5 86 1.5 SSW 17 20 9 11 1013.0 1012.8 0.0
20/05:30am 19.8 20.0 17.7 88 1.3 SW 13 17 7 9 1012.9 1012.7 0.0
20/05:00am 19.9 20.6 18.0 89 1.2 SW 11 15 6 8 1012.7 1012.5 0.0
20/04:30am 20.0 21.5 18.1 89 1.2 SW 7 9 4 5 1012.5 1012.3 0.0
20/04:00am 20.4 20.8 18.1 87 1.4 SSW 13 19 7 10 1012.3 1012.1 0.0
20/03:30am 20.2 19.8 18.1 88 1.3 SW 17 20 9 11 1012.1 1011.9 0.0
20/03:00am 20.1 20.1 18.2 89 1.2 WSW 15 17 8 9 1012.0 1011.8 0.0
20/02:30am 20.3 21.6 18.4 89 1.2 WSW 9 11 5 6 1012.1 1011.9 0.0
20/02:00am 20.8 21.2 18.2 85 1.6 SW 13 15 7 8 1012.5 1012.3 0.0
20/01:30am 21.0 21.4 18.1 83 1.8 SW 13 17 7 9 1012.7 1012.5 0.0
20/01:00am 21.4 21.4 18.0 81 2.1 SW 15 19 8 10 1012.8 1012.6 0.0
20/12:30am 21.6 22.0 18.1 80 2.2 SW 13 19 7 10 1013.1 1012.9 0.0
20/12:00am 21.8 22.5 17.9 78 2.4 WSW 11 13 6 7 1013.3 1013.1 0.0
 
Date/Time
WST
Temp
°C
App
Temp
°C
Dew
Point
°C
Rel
Hum
%
Delta-T
°C
Wind Press
QNH
hPa
Press
MSL
hPa
Rain since
9am
mm
Dir  Spd
km/h
Gust
km/h
Spd
kts
Gust
kts
19/11:30pm 22.1 23.0 17.6 75 2.8 WSW 9 11 5 6 1013.0 1012.8 0.0
19/11:00pm 22.4 22.5 17.4 73 3.1 WSW 13 15 7 8 1013.1 1012.9 0.0
19/10:30pm 22.6 22.9 17.1 71 3.4 SW 11 13 6 7 1013.2 1013.0 0.0
19/10:00pm 23.1 22.1 16.6 67 4.0 SW 17 20 9 11 1013.2 1013.0 0.0
19/09:30pm 23.8 22.6 16.1 62 4.7 SW 17 20 9 11 1013.2 1013.0 0.0
19/09:00pm 24.6 23.1 15.3 56 5.6 SW 17 20 9 11 1013.2 1013.0 0.0
19/08:30pm 25.2 24.3 15.8 56 5.7 SW 15 20 8 11 1012.8 1012.6 0.0
19/08:00pm 25.2 25.2 17.2 61 5.0 SW 13 19 7 10 1012.4 1012.2 0.0
19/07:30pm 26.2 24.9 16.9 56 5.8 WSW 19 24 10 13 1012.0 1011.8 0.0
19/07:00pm 27.5 27.3 17.7 55 6.2 WSW 15 20 8 11 1011.8 1011.6 0.0
19/06:30pm 28.5 27.5 17.6 51 6.9 W 19 22 10 12 1011.5 1011.3 0.0
19/06:00pm 29.5 28.7 18.5 51 7.1 W 20 26 11 14 1011.5 1011.3 0.0
19/05:30pm 30.6 30.9 19.5 51 7.3 WSW 17 20 9 11 1011.5 1011.3 0.0
19/05:00pm 32.2 31.9 19.1 45 8.6 WSW 19 24 10 13 1011.3 1011.1 0.0
19/04:30pm 32.8 32.0 17.9 41 9.6 W 19 26 10 14 1011.3 1011.1 0.0
19/04:00pm 33.2 32.0 18.4 41 9.6 W 22 30 12 16 1011.5 1011.3 0.0
19/03:30pm 34.4 31.8 17.9 37 10.7 W 28 33 15 18 1011.6 1011.4 0.0
19/03:00pm 34.8 32.3 18.0 37 10.9 WNW 28 39 15 21 1011.8 1011.6 0.0
19/02:30pm 34.6 31.8 18.2 37 10.7 WNW 30 39 16 21 1012.1 1011.9 0.0
19/02:00pm 35.2 31.2 16.3 32 12.0 NW 32 39 17 21 1012.3 1012.1 0.0
19/01:30pm 35.6 30.1 12.0 24 14.1 WNW 32 37 17 20 1012.5 1012.3 0.0
19/01:00pm 36.7 34.3 13.8 25 14.1 NNW 19 30 10 16 1012.5 1012.3 0.0
19/12:30pm 36.3 33.6 13.4 25 14.0 NNW 20 30 11 16 1012.6 1012.4 0.0
19/12:00pm 35.7 33.2 13.4 26 13.6 N 19 30 10 16 1013.1 1012.9 0.0

Latest Capital City Observations: Canberra | Sydney | Melbourne | Brisbane | Adelaide | Perth | Hobart | Darwin

Other Formats:

Comma delimited format used in spreadsheet applications
http://www.bom.gov.au/fwo/IDW60901/IDW60901.94609.axf

JavaScript Object Notation format (JSON) in row-major order
http://www.bom.gov.au/fwo/IDW60901/IDW60901.94609.json